sensor_id;sensor_type;location;lat;lon;timestamp;P1;durP1;ratioP1;P2;durP2;ratioP2
6693;SDS011;3384;42.628;23.380;2023-02-28T00:00:04;20.13;;;14.50;;
6693;SDS011;3384;42.628;23.380;2023-02-28T00:02:36;18.30;;;14.20;;
6693;SDS011;3384;42.628;23.380;2023-02-28T00:05:03;22.63;;;13.87;;
6693;SDS011;3384;42.628;23.380;2023-02-28T00:07:30;24.77;;;12.53;;
6693;SDS011;3384;42.628;23.380;2023-02-28T00:10:02;20.73;;;13.90;;
6693;SDS011;3384;42.628;23.380;2023-02-28T00:12:29;18.83;;;13.60;;
6693;SDS011;3384;42.628;23.380;2023-02-28T00:14:55;17.70;;;12.80;;
6693;SDS011;3384;42.628;23.380;2023-02-28T00:17:22;16.80;;;12.33;;
6693;SDS011;3384;42.628;23.380;2023-02-28T00:19:50;15.40;;;11.97;;
6693;SDS011;3384;42.628;23.380;2023-02-28T00:22:17;15.60;;;11.20;;
6693;SDS011;3384;42.628;23.380;2023-02-28T00:24:44;17.33;;;11.70;;
6693;SDS011;3384;42.628;23.380;2023-02-28T00:27:11;16.90;;;10.60;;
6693;SDS011;3384;42.628;23.380;2023-02-28T00:29:37;14.93;;;11.47;;
6693;SDS011;3384;42.628;23.380;2023-02-28T00:32:04;18.10;;;12.13;;
6693;SDS011;3384;42.628;23.380;2023-02-28T00:34:31;17.43;;;12.57;;
6693;SDS011;3384;42.628;23.380;2023-02-28T00:39:30;16.00;;;12.23;;
6693;SDS011;3384;42.628;23.380;2023-02-28T00:41:56;15.20;;;11.70;;
6693;SDS011;3384;42.628;23.380;2023-02-28T00:44:23;15.20;;;12.00;;
6693;SDS011;3384;42.628;23.380;2023-02-28T00:46:50;15.73;;;12.60;;
6693;SDS011;3384;42.628;23.380;2023-02-28T00:49:16;15.97;;;12.77;;
6693;SDS011;3384;42.628;23.380;2023-02-28T00:51:43;24.27;;;15.13;;
6693;SDS011;3384;42.628;23.380;2023-02-28T00:54:09;17.50;;;13.60;;
6693;SDS011;3384;42.628;23.380;2023-02-28T00:56:37;22.87;;;15.53;;
6693;SDS011;3384;42.628;23.380;2023-02-28T00:59:04;26.70;;;16.33;;
6693;SDS011;3384;42.628;23.380;2023-02-28T01:01:30;28.43;;;16.33;;
6693;SDS011;3384;42.628;23.380;2023-02-28T01:03:57;28.63;;;16.73;;
6693;SDS011;3384;42.628;23.380;2023-02-28T01:06:24;22.60;;;14.13;;
6693;SDS011;3384;42.628;23.380;2023-02-28T01:08:50;16.20;;;13.47;;
6693;SDS011;3384;42.628;23.380;2023-02-28T01:11:17;16.20;;;12.90;;
6693;SDS011;3384;42.628;23.380;2023-02-28T01:13:45;17.20;;;13.17;;
6693;SDS011;3384;42.628;23.380;2023-02-28T01:16:12;18.97;;;12.93;;
6693;SDS011;3384;42.628;23.380;2023-02-28T01:18:39;17.43;;;13.30;;
6693;SDS011;3384;42.628;23.380;2023-02-28T01:21:06;26.43;;;15.67;;
6693;SDS011;3384;42.628;23.380;2023-02-28T01:23:33;26.00;;;14.70;;
6693;SDS011;3384;42.628;23.380;2023-02-28T01:26:03;27.17;;;16.13;;
6693;SDS011;3384;42.628;23.380;2023-02-28T01:28:29;22.10;;;16.40;;
6693;SDS011;3384;42.628;23.380;2023-02-28T01:30:57;27.57;;;15.70;;
6693;SDS011;3384;42.628;23.380;2023-02-28T01:33:24;27.67;;;16.70;;
6693;SDS011;3384;42.628;23.380;2023-02-28T01:35:56;23.37;;;14.40;;
6693;SDS011;3384;42.628;23.380;2023-02-28T01:38:23;24.40;;;15.93;;
6693;SDS011;3384;42.628;23.380;2023-02-28T01:40:50;24.80;;;16.27;;
6693;SDS011;3384;42.628;23.380;2023-02-28T01:43:19;20.93;;;14.47;;
6693;SDS011;3384;42.628;23.380;2023-02-28T01:45:46;26.63;;;16.70;;
6693;SDS011;3384;42.628;23.380;2023-02-28T01:48:14;33.93;;;16.67;;
6693;SDS011;3384;42.628;23.380;2023-02-28T01:50:41;22.30;;;14.23;;
6693;SDS011;3384;42.628;23.380;2023-02-28T01:53:18;24.83;;;14.73;;
6693;SDS011;3384;42.628;23.380;2023-02-28T01:55:46;27.87;;;14.47;;
6693;SDS011;3384;42.628;23.380;2023-02-28T01:58:14;19.30;;;13.60;;
6693;SDS011;3384;42.628;23.380;2023-02-28T02:00:40;18.60;;;14.33;;
6693;SDS011;3384;42.628;23.380;2023-02-28T02:03:08;22.30;;;15.30;;
6693;SDS011;3384;42.628;23.380;2023-02-28T02:05:37;34.40;;;18.33;;
6693;SDS011;3384;42.628;23.380;2023-02-28T02:08:04;30.53;;;18.13;;
6693;SDS011;3384;42.628;23.380;2023-02-28T02:10:32;28.43;;;16.77;;
6693;SDS011;3384;42.628;23.380;2023-02-28T02:13:08;28.67;;;17.10;;
6693;SDS011;3384;42.628;23.380;2023-02-28T02:15:39;32.07;;;17.77;;
6693;SDS011;3384;42.628;23.380;2023-02-28T02:18:08;36.17;;;18.33;;
6693;SDS011;3384;42.628;23.380;2023-02-28T02:20:46;31.73;;;18.30;;
6693;SDS011;3384;42.628;23.380;2023-02-28T02:23:27;24.57;;;16.67;;
6693;SDS011;3384;42.628;23.380;2023-02-28T02:26:00;27.37;;;18.33;;
6693;SDS011;3384;42.628;23.380;2023-02-28T02:28:44;29.83;;;19.43;;
6693;SDS011;3384;42.628;23.380;2023-02-28T02:31:26;32.80;;;17.57;;
6693;SDS011;3384;42.628;23.380;2023-02-28T02:36:53;27.40;;;18.43;;
6693;SDS011;3384;42.628;23.380;2023-02-28T02:39:27;28.87;;;17.50;;
6693;SDS011;3384;42.628;23.380;2023-02-28T02:41:56;27.53;;;17.77;;
6693;SDS011;3384;42.628;23.380;2023-02-28T02:44:25;29.00;;;18.57;;
6693;SDS011;3384;42.628;23.380;2023-02-28T02:46:53;21.47;;;16.53;;
6693;SDS011;3384;42.628;23.380;2023-02-28T02:49:22;28.87;;;17.17;;
6693;SDS011;3384;42.628;23.380;2023-02-28T02:51:49;43.13;;;16.30;;
6693;SDS011;3384;42.628;23.380;2023-02-28T02:54:17;33.40;;;19.43;;
6693;SDS011;3384;42.628;23.380;2023-02-28T02:56:46;27.83;;;16.80;;
6693;SDS011;3384;42.628;23.380;2023-02-28T02:59:16;25.00;;;15.10;;
6693;SDS011;3384;42.628;23.380;2023-02-28T03:01:46;25.93;;;16.30;;
6693;SDS011;3384;42.628;23.380;2023-02-28T03:04:16;24.03;;;16.17;;
6693;SDS011;3384;42.628;23.380;2023-02-28T03:06:43;27.93;;;15.57;;
6693;SDS011;3384;42.628;23.380;2023-02-28T03:09:09;31.50;;;17.17;;
6693;SDS011;3384;42.628;23.380;2023-02-28T03:11:37;25.60;;;16.80;;
6693;SDS011;3384;42.628;23.380;2023-02-28T03:14:10;31.47;;;16.63;;
6693;SDS011;3384;42.628;23.380;2023-02-28T03:16:43;27.93;;;17.60;;
6693;SDS011;3384;42.628;23.380;2023-02-28T03:19:18;42.57;;;18.90;;
6693;SDS011;3384;42.628;23.380;2023-02-28T03:21:51;29.63;;;17.93;;
6693;SDS011;3384;42.628;23.380;2023-02-28T03:24:22;38.70;;;20.00;;
6693;SDS011;3384;42.628;23.380;2023-02-28T03:26:52;34.07;;;19.27;;
6693;SDS011;3384;42.628;23.380;2023-02-28T03:29:22;44.60;;;19.90;;
6693;SDS011;3384;42.628;23.380;2023-02-28T03:31:50;44.17;;;21.17;;
6693;SDS011;3384;42.628;23.380;2023-02-28T03:34:19;43.57;;;22.07;;
6693;SDS011;3384;42.628;23.380;2023-02-28T03:36:48;60.50;;;23.50;;
6693;SDS011;3384;42.628;23.380;2023-02-28T03:39:17;41.47;;;21.23;;
6693;SDS011;3384;42.628;23.380;2023-02-28T03:41:46;57.63;;;21.70;;
6693;SDS011;3384;42.628;23.380;2023-02-28T03:44:18;48.93;;;22.87;;
6693;SDS011;3384;42.628;23.380;2023-02-28T03:46:46;44.03;;;20.53;;
6693;SDS011;3384;42.628;23.380;2023-02-28T03:49:15;48.83;;;23.30;;
6693;SDS011;3384;42.628;23.380;2023-02-28T03:51:43;57.10;;;22.23;;
6693;SDS011;3384;42.628;23.380;2023-02-28T03:54:12;40.83;;;24.27;;
6693;SDS011;3384;42.628;23.380;2023-02-28T03:56:41;37.50;;;20.23;;
6693;SDS011;3384;42.628;23.380;2023-02-28T03:59:10;58.77;;;24.00;;
6693;SDS011;3384;42.628;23.380;2023-02-28T04:01:41;60.57;;;23.27;;
6693;SDS011;3384;42.628;23.380;2023-02-28T04:04:09;58.10;;;22.63;;
6693;SDS011;3384;42.628;23.380;2023-02-28T04:06:36;47.20;;;23.77;;
6693;SDS011;3384;42.628;23.380;2023-02-28T04:09:03;72.00;;;24.30;;
6693;SDS011;3384;42.628;23.380;2023-02-28T04:11:32;145.60;;;23.70;;
6693;SDS011;3384;42.628;23.380;2023-02-28T04:13:59;77.53;;;22.50;;
6693;SDS011;3384;42.628;23.380;2023-02-28T04:16:26;75.00;;;23.50;;
6693;SDS011;3384;42.628;23.380;2023-02-28T04:18:54;130.97;;;24.30;;
6693;SDS011;3384;42.628;23.380;2023-02-28T04:21:27;148.47;;;23.37;;
6693;SDS011;3384;42.628;23.380;2023-02-28T04:23:53;51.83;;;24.37;;
6693;SDS011;3384;42.628;23.380;2023-02-28T04:26:26;73.33;;;25.23;;
6693;SDS011;3384;42.628;23.380;2023-02-28T04:28:53;71.03;;;24.53;;
6693;SDS011;3384;42.628;23.380;2023-02-28T04:31:20;109.13;;;24.27;;
6693;SDS011;3384;42.628;23.380;2023-02-28T04:33:49;74.03;;;21.53;;
6693;SDS011;3384;42.628;23.380;2023-02-28T04:36:17;93.53;;;20.30;;
6693;SDS011;3384;42.628;23.380;2023-02-28T04:38:44;71.93;;;22.00;;
6693;SDS011;3384;42.628;23.380;2023-02-28T04:41:11;75.93;;;21.80;;
6693;SDS011;3384;42.628;23.380;2023-02-28T04:43:37;82.37;;;20.93;;
6693;SDS011;3384;42.628;23.380;2023-02-28T04:46:04;132.23;;;21.60;;
6693;SDS011;3384;42.628;23.380;2023-02-28T04:48:31;81.60;;;19.83;;
6693;SDS011;3384;42.628;23.380;2023-02-28T04:50:59;94.93;;;19.90;;
6693;SDS011;3384;42.628;23.380;2023-02-28T04:53:28;148.80;;;22.60;;
6693;SDS011;3384;42.628;23.380;2023-02-28T04:55:54;56.03;;;20.50;;
6693;SDS011;3384;42.628;23.380;2023-02-28T04:58:21;254.03;;;22.10;;
6693;SDS011;3384;42.628;23.380;2023-02-28T05:00:48;115.20;;;23.17;;
6693;SDS011;3384;42.628;23.380;2023-02-28T05:03:15;158.77;;;21.47;;
6693;SDS011;3384;42.628;23.380;2023-02-28T05:05:41;173.77;;;23.53;;
6693;SDS011;3384;42.628;23.380;2023-02-28T05:08:08;144.17;;;21.77;;
6693;SDS011;3384;42.628;23.380;2023-02-28T05:10:36;76.73;;;19.27;;
6693;SDS011;3384;42.628;23.380;2023-02-28T05:13:02;135.30;;;23.00;;
6693;SDS011;3384;42.628;23.380;2023-02-28T05:15:29;80.87;;;22.57;;
6693;SDS011;3384;42.628;23.380;2023-02-28T05:17:55;84.07;;;21.50;;
6693;SDS011;3384;42.628;23.380;2023-02-28T05:20:22;38.13;;;20.50;;
6693;SDS011;3384;42.628;23.380;2023-02-28T05:22:49;89.23;;;18.57;;
6693;SDS011;3384;42.628;23.380;2023-02-28T05:25:17;64.13;;;19.70;;
6693;SDS011;3384;42.628;23.380;2023-02-28T05:27:46;78.87;;;20.03;;
6693;SDS011;3384;42.628;23.380;2023-02-28T05:30:13;40.07;;;19.10;;
6693;SDS011;3384;42.628;23.380;2023-02-28T05:32:40;31.80;;;20.17;;
6693;SDS011;3384;42.628;23.380;2023-02-28T05:35:08;39.30;;;20.50;;
6693;SDS011;3384;42.628;23.380;2023-02-28T05:37:35;30.77;;;19.17;;
6693;SDS011;3384;42.628;23.380;2023-02-28T05:40:01;34.00;;;19.60;;
6693;SDS011;3384;42.628;23.380;2023-02-28T05:42:31;34.93;;;19.73;;
6693;SDS011;3384;42.628;23.380;2023-02-28T05:44:58;30.93;;;18.33;;
6693;SDS011;3384;42.628;23.380;2023-02-28T05:47:25;34.17;;;20.57;;
6693;SDS011;3384;42.628;23.380;2023-02-28T05:49:51;36.43;;;18.37;;
6693;SDS011;3384;42.628;23.380;2023-02-28T05:52:21;40.23;;;19.77;;
6693;SDS011;3384;42.628;23.380;2023-02-28T05:54:47;28.40;;;18.27;;
6693;SDS011;3384;42.628;23.380;2023-02-28T05:57:15;29.53;;;18.77;;
6693;SDS011;3384;42.628;23.380;2023-02-28T05:59:41;26.97;;;18.40;;
6693;SDS011;3384;42.628;23.380;2023-02-28T06:02:10;30.40;;;18.07;;
6693;SDS011;3384;42.628;23.380;2023-02-28T06:04:37;35.77;;;20.80;;
6693;SDS011;3384;42.628;23.380;2023-02-28T06:07:06;41.67;;;19.53;;
6693;SDS011;3384;42.628;23.380;2023-02-28T06:09:35;34.50;;;20.63;;
6693;SDS011;3384;42.628;23.380;2023-02-28T06:12:05;42.20;;;21.23;;
6693;SDS011;3384;42.628;23.380;2023-02-28T06:14:35;39.77;;;21.40;;
6693;SDS011;3384;42.628;23.380;2023-02-28T06:17:02;34.70;;;18.60;;
6693;SDS011;3384;42.628;23.380;2023-02-28T06:19:30;30.97;;;18.70;;
6693;SDS011;3384;42.628;23.380;2023-02-28T06:21:57;26.53;;;17.73;;
6693;SDS011;3384;42.628;23.380;2023-02-28T06:24:27;25.40;;;17.20;;
6693;SDS011;3384;42.628;23.380;2023-02-28T06:26:54;25.60;;;15.67;;
6693;SDS011;3384;42.628;23.380;2023-02-28T06:29:20;24.50;;;14.73;;
6693;SDS011;3384;42.628;23.380;2023-02-28T06:31:47;32.63;;;18.57;;
6693;SDS011;3384;42.628;23.380;2023-02-28T06:34:14;35.87;;;20.40;;
6693;SDS011;3384;42.628;23.380;2023-02-28T06:36:44;32.63;;;19.60;;
6693;SDS011;3384;42.628;23.380;2023-02-28T06:39:11;34.23;;;21.90;;
6693;SDS011;3384;42.628;23.380;2023-02-28T06:41:37;40.13;;;23.20;;
6693;SDS011;3384;42.628;23.380;2023-02-28T06:44:05;25.43;;;16.90;;
6693;SDS011;3384;42.628;23.380;2023-02-28T06:46:32;29.20;;;18.00;;
6693;SDS011;3384;42.628;23.380;2023-02-28T06:48:58;31.10;;;19.30;;
6693;SDS011;3384;42.628;23.380;2023-02-28T06:51:25;31.33;;;18.43;;
6693;SDS011;3384;42.628;23.380;2023-02-28T06:53:55;28.57;;;19.57;;
6693;SDS011;3384;42.628;23.380;2023-02-28T06:56:22;31.60;;;19.77;;
6693;SDS011;3384;42.628;23.380;2023-02-28T06:58:49;30.10;;;17.97;;
6693;SDS011;3384;42.628;23.380;2023-02-28T07:01:17;30.40;;;18.90;;
6693;SDS011;3384;42.628;23.380;2023-02-28T07:03:44;36.70;;;18.63;;
6693;SDS011;3384;42.628;23.380;2023-02-28T07:06:11;29.13;;;17.77;;
6693;SDS011;3384;42.628;23.380;2023-02-28T07:08:38;34.47;;;16.20;;
6693;SDS011;3384;42.628;23.380;2023-02-28T07:11:06;33.93;;;18.90;;
6693;SDS011;3384;42.628;23.380;2023-02-28T07:13:33;26.57;;;18.33;;
6693;SDS011;3384;42.628;23.380;2023-02-28T07:16:00;31.20;;;16.73;;
6693;SDS011;3384;42.628;23.380;2023-02-28T07:18:26;43.40;;;17.40;;
6693;SDS011;3384;42.628;23.380;2023-02-28T07:20:53;28.60;;;17.37;;
6693;SDS011;3384;42.628;23.380;2023-02-28T07:23:20;35.50;;;18.27;;
6693;SDS011;3384;42.628;23.380;2023-02-28T07:25:47;25.80;;;18.20;;
6693;SDS011;3384;42.628;23.380;2023-02-28T07:28:15;25.33;;;16.13;;
6693;SDS011;3384;42.628;23.380;2023-02-28T07:30:41;34.03;;;16.67;;
6693;SDS011;3384;42.628;23.380;2023-02-28T07:33:08;33.57;;;18.33;;
6693;SDS011;3384;42.628;23.380;2023-02-28T07:35:34;29.57;;;18.40;;
6693;SDS011;3384;42.628;23.380;2023-02-28T07:38:01;28.00;;;20.63;;
6693;SDS011;3384;42.628;23.380;2023-02-28T07:40:28;31.77;;;18.83;;
6693;SDS011;3384;42.628;23.380;2023-02-28T07:42:54;27.80;;;16.37;;
6693;SDS011;3384;42.628;23.380;2023-02-28T07:45:22;30.10;;;18.27;;
6693;SDS011;3384;42.628;23.380;2023-02-28T07:47:49;36.37;;;18.27;;
6693;SDS011;3384;42.628;23.380;2023-02-28T07:50:15;29.43;;;19.33;;
6693;SDS011;3384;42.628;23.380;2023-02-28T07:52:42;29.50;;;17.60;;
6693;SDS011;3384;42.628;23.380;2023-02-28T07:55:09;32.73;;;18.50;;
6693;SDS011;3384;42.628;23.380;2023-02-28T07:57:36;31.63;;;19.17;;
6693;SDS011;3384;42.628;23.380;2023-02-28T08:00:02;34.27;;;19.13;;
6693;SDS011;3384;42.628;23.380;2023-02-28T08:02:30;35.07;;;16.80;;
6693;SDS011;3384;42.628;23.380;2023-02-28T08:04:57;31.30;;;17.03;;
6693;SDS011;3384;42.628;23.380;2023-02-28T08:07:23;35.23;;;18.23;;
6693;SDS011;3384;42.628;23.380;2023-02-28T08:09:50;34.47;;;17.97;;
6693;SDS011;3384;42.628;23.380;2023-02-28T08:12:16;31.30;;;18.33;;
6693;SDS011;3384;42.628;23.380;2023-02-28T08:14:43;33.40;;;19.23;;
6693;SDS011;3384;42.628;23.380;2023-02-28T08:17:09;32.57;;;18.27;;
6693;SDS011;3384;42.628;23.380;2023-02-28T08:19:37;42.50;;;19.67;;
6693;SDS011;3384;42.628;23.380;2023-02-28T08:22:04;38.00;;;19.77;;
6693;SDS011;3384;42.628;23.380;2023-02-28T08:24:30;40.90;;;19.63;;
6693;SDS011;3384;42.628;23.380;2023-02-28T08:26:57;32.70;;;17.40;;
6693;SDS011;3384;42.628;23.380;2023-02-28T08:29:23;30.83;;;18.93;;
6693;SDS011;3384;42.628;23.380;2023-02-28T08:31:50;33.60;;;18.40;;
6693;SDS011;3384;42.628;23.380;2023-02-28T08:34:16;35.87;;;19.00;;
6693;SDS011;3384;42.628;23.380;2023-02-28T08:36:44;35.37;;;19.13;;
6693;SDS011;3384;42.628;23.380;2023-02-28T08:39:11;30.73;;;18.80;;
6693;SDS011;3384;42.628;23.380;2023-02-28T08:41:38;28.83;;;16.63;;
6693;SDS011;3384;42.628;23.380;2023-02-28T08:44:05;31.80;;;15.80;;
6693;SDS011;3384;42.628;23.380;2023-02-28T08:46:31;34.57;;;15.60;;
6693;SDS011;3384;42.628;23.380;2023-02-28T08:48:58;26.77;;;13.27;;
6693;SDS011;3384;42.628;23.380;2023-02-28T08:51:26;30.50;;;15.53;;
6693;SDS011;3384;42.628;23.380;2023-02-28T08:53:54;33.23;;;13.67;;
6693;SDS011;3384;42.628;23.380;2023-02-28T08:56:21;48.80;;;12.97;;
6693;SDS011;3384;42.628;23.380;2023-02-28T08:58:48;21.23;;;11.53;;
6693;SDS011;3384;42.628;23.380;2023-02-28T09:01:15;41.50;;;10.90;;
6693;SDS011;3384;42.628;23.380;2023-02-28T09:03:42;20.53;;;8.73;;
6693;SDS011;3384;42.628;23.380;2023-02-28T09:06:09;9.97;;;8.97;;
6693;SDS011;3384;42.628;23.380;2023-02-28T09:08:36;14.00;;;8.20;;
6693;SDS011;3384;42.628;23.380;2023-02-28T09:11:04;11.90;;;8.67;;
6693;SDS011;3384;42.628;23.380;2023-02-28T09:13:31;24.27;;;8.30;;
6693;SDS011;3384;42.628;23.380;2023-02-28T09:15:58;22.00;;;7.90;;
6693;SDS011;3384;42.628;23.380;2023-02-28T09:18:28;22.70;;;8.07;;
6693;SDS011;3384;42.628;23.380;2023-02-28T09:20:54;16.70;;;7.70;;
6693;SDS011;3384;42.628;23.380;2023-02-28T09:23:21;22.37;;;9.73;;
6693;SDS011;3384;42.628;23.380;2023-02-28T09:25:48;33.10;;;8.70;;
6693;SDS011;3384;42.628;23.380;2023-02-28T09:28:16;17.47;;;8.27;;
6693;SDS011;3384;42.628;23.380;2023-02-28T09:30:44;24.53;;;8.43;;
6693;SDS011;3384;42.628;23.380;2023-02-28T09:33:11;15.20;;;8.70;;
6693;SDS011;3384;42.628;23.380;2023-02-28T09:35:37;29.43;;;8.47;;
6693;SDS011;3384;42.628;23.380;2023-02-28T09:38:04;16.40;;;8.07;;
6693;SDS011;3384;42.628;23.380;2023-02-28T09:40:34;13.90;;;7.63;;
6693;SDS011;3384;42.628;23.380;2023-02-28T09:43:01;16.40;;;9.40;;
6693;SDS011;3384;42.628;23.380;2023-02-28T09:45:30;20.80;;;12.27;;
6693;SDS011;3384;42.628;23.380;2023-02-28T09:47:59;24.23;;;8.53;;
6693;SDS011;3384;42.628;23.380;2023-02-28T09:50:29;15.83;;;7.67;;
6693;SDS011;3384;42.628;23.380;2023-02-28T09:52:58;14.50;;;8.60;;
6693;SDS011;3384;42.628;23.380;2023-02-28T09:55:26;22.07;;;7.60;;
6693;SDS011;3384;42.628;23.380;2023-02-28T09:57:54;23.53;;;8.70;;
6693;SDS011;3384;42.628;23.380;2023-02-28T10:00:26;26.60;;;8.40;;
6693;SDS011;3384;42.628;23.380;2023-02-28T10:03:00;21.10;;;8.90;;
6693;SDS011;3384;42.628;23.380;2023-02-28T10:05:30;20.23;;;8.07;;
6693;SDS011;3384;42.628;23.380;2023-02-28T10:08:00;18.17;;;7.40;;
6693;SDS011;3384;42.628;23.380;2023-02-28T10:10:32;14.93;;;7.90;;
6693;SDS011;3384;42.628;23.380;2023-02-28T10:12:59;32.63;;;8.77;;
6693;SDS011;3384;42.628;23.380;2023-02-28T10:15:27;26.03;;;9.87;;
6693;SDS011;3384;42.628;23.380;2023-02-28T10:17:54;18.00;;;11.10;;
6693;SDS011;3384;42.628;23.380;2023-02-28T10:20:24;12.57;;;10.07;;
6693;SDS011;3384;42.628;23.380;2023-02-28T10:22:57;14.57;;;9.80;;
6693;SDS011;3384;42.628;23.380;2023-02-28T10:25:25;21.70;;;10.40;;
6693;SDS011;3384;42.628;23.380;2023-02-28T10:27:52;24.57;;;10.60;;
6693;SDS011;3384;42.628;23.380;2023-02-28T10:30:20;25.00;;;8.57;;
6693;SDS011;3384;42.628;23.380;2023-02-28T10:32:47;13.80;;;7.50;;
6693;SDS011;3384;42.628;23.380;2023-02-28T10:35:16;18.97;;;9.53;;
6693;SDS011;3384;42.628;23.380;2023-02-28T10:37:45;21.23;;;11.03;;
6693;SDS011;3384;42.628;23.380;2023-02-28T10:40:24;12.70;;;8.03;;
6693;SDS011;3384;42.628;23.380;2023-02-28T10:42:54;20.97;;;8.83;;
6693;SDS011;3384;42.628;23.380;2023-02-28T10:45:21;16.13;;;9.00;;
6693;SDS011;3384;42.628;23.380;2023-02-28T10:47:51;27.63;;;9.53;;
6693;SDS011;3384;42.628;23.380;2023-02-28T10:50:28;17.30;;;8.40;;
6693;SDS011;3384;42.628;23.380;2023-02-28T10:52:56;20.10;;;8.13;;
6693;SDS011;3384;42.628;23.380;2023-02-28T10:55:31;23.10;;;8.73;;
6693;SDS011;3384;42.628;23.380;2023-02-28T10:57:57;15.93;;;8.33;;
6693;SDS011;3384;42.628;23.380;2023-02-28T11:00:25;10.50;;;8.40;;
6693;SDS011;3384;42.628;23.380;2023-02-28T11:02:51;12.70;;;8.53;;
6693;SDS011;3384;42.628;23.380;2023-02-28T11:05:28;15.13;;;7.77;;
6693;SDS011;3384;42.628;23.380;2023-02-28T11:07:56;27.00;;;9.27;;
6693;SDS011;3384;42.628;23.380;2023-02-28T11:10:24;21.63;;;8.93;;
6693;SDS011;3384;42.628;23.380;2023-02-28T11:12:54;11.67;;;8.77;;
6693;SDS011;3384;42.628;23.380;2023-02-28T11:15:21;44.30;;;11.50;;
6693;SDS011;3384;42.628;23.380;2023-02-28T11:17:53;15.70;;;10.70;;
6693;SDS011;3384;42.628;23.380;2023-02-28T11:20:20;27.73;;;12.43;;
6693;SDS011;3384;42.628;23.380;2023-02-28T11:22:48;21.83;;;13.07;;
6693;SDS011;3384;42.628;23.380;2023-02-28T11:25:19;23.13;;;13.10;;
6693;SDS011;3384;42.628;23.380;2023-02-28T11:27:48;31.53;;;12.80;;
6693;SDS011;3384;42.628;23.380;2023-02-28T11:30:24;35.20;;;13.07;;
6693;SDS011;3384;42.628;23.380;2023-02-28T11:32:51;22.07;;;11.27;;
6693;SDS011;3384;42.628;23.380;2023-02-28T11:35:19;19.00;;;10.30;;
6693;SDS011;3384;42.628;23.380;2023-02-28T11:37:47;24.73;;;10.50;;
6693;SDS011;3384;42.628;23.380;2023-02-28T11:40:14;32.83;;;11.27;;
6693;SDS011;3384;42.628;23.380;2023-02-28T11:42:45;30.27;;;12.97;;
6693;SDS011;3384;42.628;23.380;2023-02-28T11:45:16;30.50;;;10.63;;
6693;SDS011;3384;42.628;23.380;2023-02-28T11:47:46;27.27;;;11.23;;
6693;SDS011;3384;42.628;23.380;2023-02-28T11:50:16;25.07;;;9.47;;
6693;SDS011;3384;42.628;23.380;2023-02-28T11:52:48;30.47;;;12.90;;
6693;SDS011;3384;42.628;23.380;2023-02-28T11:55:17;23.07;;;12.03;;
6693;SDS011;3384;42.628;23.380;2023-02-28T11:57:56;25.87;;;11.90;;
6693;SDS011;3384;42.628;23.380;2023-02-28T12:00:28;19.77;;;11.67;;
6693;SDS011;3384;42.628;23.380;2023-02-28T12:03:00;17.50;;;11.47;;
6693;SDS011;3384;42.628;23.380;2023-02-28T12:05:34;22.63;;;10.93;;
6693;SDS011;3384;42.628;23.380;2023-02-28T12:08:04;18.43;;;9.93;;
6693;SDS011;3384;42.628;23.380;2023-02-28T12:10:33;18.40;;;12.10;;
6693;SDS011;3384;42.628;23.380;2023-02-28T12:13:06;31.90;;;12.60;;
6693;SDS011;3384;42.628;23.380;2023-02-28T12:18:37;21.27;;;9.70;;
6693;SDS011;3384;42.628;23.380;2023-02-28T12:21:09;27.73;;;10.30;;
6693;SDS011;3384;42.628;23.380;2023-02-28T12:23:47;15.17;;;9.93;;
6693;SDS011;3384;42.628;23.380;2023-02-28T12:26:15;19.40;;;10.47;;
6693;SDS011;3384;42.628;23.380;2023-02-28T12:28:47;40.63;;;11.87;;
6693;SDS011;3384;42.628;23.380;2023-02-28T12:31:17;25.50;;;11.80;;
6693;SDS011;3384;42.628;23.380;2023-02-28T12:33:45;17.40;;;9.63;;
6693;SDS011;3384;42.628;23.380;2023-02-28T12:36:14;21.53;;;12.73;;
6693;SDS011;3384;42.628;23.380;2023-02-28T12:38:44;27.37;;;13.47;;
6693;SDS011;3384;42.628;23.380;2023-02-28T12:41:12;18.80;;;9.80;;
6693;SDS011;3384;42.628;23.380;2023-02-28T12:43:40;41.70;;;13.20;;
6693;SDS011;3384;42.628;23.380;2023-02-28T12:46:10;24.10;;;12.53;;
6693;SDS011;3384;42.628;23.380;2023-02-28T12:48:40;19.27;;;11.90;;
6693;SDS011;3384;42.628;23.380;2023-02-28T12:51:08;15.50;;;11.20;;
6693;SDS011;3384;42.628;23.380;2023-02-28T12:53:37;28.23;;;12.53;;
6693;SDS011;3384;42.628;23.380;2023-02-28T12:56:08;28.70;;;13.20;;
6693;SDS011;3384;42.628;23.380;2023-02-28T12:58:39;19.50;;;10.93;;
6693;SDS011;3384;42.628;23.380;2023-02-28T13:01:19;34.10;;;14.03;;
6693;SDS011;3384;42.628;23.380;2023-02-28T13:03:58;21.53;;;12.10;;
6693;SDS011;3384;42.628;23.380;2023-02-28T13:06:32;20.60;;;10.50;;
6693;SDS011;3384;42.628;23.380;2023-02-28T13:09:05;14.87;;;10.53;;
6693;SDS011;3384;42.628;23.380;2023-02-28T13:11:38;29.57;;;10.80;;
6693;SDS011;3384;42.628;23.380;2023-02-28T13:14:05;32.90;;;12.20;;
6693;SDS011;3384;42.628;23.380;2023-02-28T13:16:52;19.27;;;11.00;;
6693;SDS011;3384;42.628;23.380;2023-02-28T13:19:20;14.90;;;11.47;;
6693;SDS011;3384;42.628;23.380;2023-02-28T13:21:49;16.90;;;11.20;;
6693;SDS011;3384;42.628;23.380;2023-02-28T13:29:51;13.47;;;10.00;;
6693;SDS011;3384;42.628;23.380;2023-02-28T13:35:16;19.07;;;9.47;;
6693;SDS011;3384;42.628;23.380;2023-02-28T13:38:15;16.23;;;10.50;;
6693;SDS011;3384;42.628;23.380;2023-02-28T13:40:42;11.03;;;8.13;;
6693;SDS011;3384;42.628;23.380;2023-02-28T13:43:08;25.00;;;11.30;;
6693;SDS011;3384;42.628;23.380;2023-02-28T13:45:35;18.80;;;8.83;;
6693;SDS011;3384;42.628;23.380;2023-02-28T13:48:03;23.23;;;10.00;;
6693;SDS011;3384;42.628;23.380;2023-02-28T13:50:33;19.30;;;8.97;;
6693;SDS011;3384;42.628;23.380;2023-02-28T13:55:46;21.63;;;10.83;;
6693;SDS011;3384;42.628;23.380;2023-02-28T13:58:25;13.10;;;8.77;;
6693;SDS011;3384;42.628;23.380;2023-02-28T14:01:00;19.33;;;9.77;;
6693;SDS011;3384;42.628;23.380;2023-02-28T14:03:39;26.23;;;11.67;;
6693;SDS011;3384;42.628;23.380;2023-02-28T14:06:10;24.20;;;12.67;;
6693;SDS011;3384;42.628;23.380;2023-02-28T14:08:44;19.80;;;11.63;;
6693;SDS011;3384;42.628;23.380;2023-02-28T14:11:23;20.87;;;11.20;;
6693;SDS011;3384;42.628;23.380;2023-02-28T14:13:50;24.50;;;11.73;;
6693;SDS011;3384;42.628;23.380;2023-02-28T14:16:17;27.37;;;12.63;;
6693;SDS011;3384;42.628;23.380;2023-02-28T14:18:48;25.43;;;12.30;;
6693;SDS011;3384;42.628;23.380;2023-02-28T14:21:19;30.17;;;12.80;;
6693;SDS011;3384;42.628;23.380;2023-02-28T14:26:47;26.40;;;12.53;;
6693;SDS011;3384;42.628;23.380;2023-02-28T14:29:23;20.63;;;11.87;;
6693;SDS011;3384;42.628;23.380;2023-02-28T14:31:54;38.07;;;10.47;;
6693;SDS011;3384;42.628;23.380;2023-02-28T14:34:26;23.17;;;11.80;;
6693;SDS011;3384;42.628;23.380;2023-02-28T14:36:58;28.17;;;12.80;;
6693;SDS011;3384;42.628;23.380;2023-02-28T14:39:25;32.90;;;13.20;;
6693;SDS011;3384;42.628;23.380;2023-02-28T14:41:52;36.73;;;11.47;;
6693;SDS011;3384;42.628;23.380;2023-02-28T14:44:20;22.47;;;11.53;;
6693;SDS011;3384;42.628;23.380;2023-02-28T14:46:49;25.10;;;12.50;;
6693;SDS011;3384;42.628;23.380;2023-02-28T14:49:17;21.63;;;12.33;;
6693;SDS011;3384;42.628;23.380;2023-02-28T14:51:44;24.43;;;10.73;;
6693;SDS011;3384;42.628;23.380;2023-02-28T14:54:14;30.93;;;12.40;;
6693;SDS011;3384;42.628;23.380;2023-02-28T14:56:41;39.17;;;13.70;;
6693;SDS011;3384;42.628;23.380;2023-02-28T14:59:22;36.27;;;11.90;;
6693;SDS011;3384;42.628;23.380;2023-02-28T15:01:49;26.33;;;11.77;;
6693;SDS011;3384;42.628;23.380;2023-02-28T15:04:22;27.60;;;12.10;;
6693;SDS011;3384;42.628;23.380;2023-02-28T15:09:31;27.70;;;12.23;;